Disclaimer

Please do not use the information listed here in-flight or in-navigation, as they are not provided to us by the airports but are provided by volunteers, so they might be outdated.

Search


Regions


Airport information page

Radio informations:
Tower (TWR) - 118.1 MHz
JAYAPURA INFO - 2956 MHz
Automatic Terminal Information Service (ATIS) - 128.8 MHz
JAYAPURA APP - 119.1 MHz

Airport informations:
Latitude: 02° 34' 37.03" S
Longitude: 140° 30' 58.94" E
Elevation: 289 feet - 88 meters
Operating hours: Remarks
Operating agency: Civil government, landing fees and diplomatic clearance may be required
Timezone: UTC+9
Fuel: Jet A1, without icing nhibitor.

100/130 MIL Spec, low lead, aviation gasoline (BLUE)

Runway information:
12/30 - 7161 x 148 feet< - >2183 x 45 meters

Recent METARs:
WAJJ 190200Z 04002KT 9999 FEW012CB SCT013 30/24 Q1007 NOSIG
WAJJ 190230Z 01002KT 9999 FEW012CB SCT013 31/24 Q1006 NOSIG
WAJJ 190300Z 00000KT 9999 FEW011CB SCT012 31/24 Q1006 NOSIG

Airport on the map: